sensor_id;sensor_type;location;lat;lon;timestamp;P1;durP1;ratioP1;P2;durP2;ratioP2
56401;SDS011;42299;35.160;26.100;2024-03-02T00:00:30;80.13;;;14.50;;
56401;SDS011;42299;35.160;26.100;2024-03-02T00:05:53;94.80;;;15.65;;
56401;SDS011;42299;35.160;26.100;2024-03-02T00:11:18;98.13;;;15.93;;
56401;SDS011;42299;35.160;26.100;2024-03-02T00:16:41;89.53;;;16.65;;
56401;SDS011;42299;35.160;26.100;2024-03-02T00:22:04;100.78;;;19.42;;
56401;SDS011;42299;35.160;26.100;2024-03-02T00:27:28;86.50;;;16.95;;
56401;SDS011;42299;35.160;26.100;2024-03-02T00:32:51;87.80;;;16.40;;
56401;SDS011;42299;35.160;26.100;2024-03-02T00:38:14;86.75;;;15.05;;
56401;SDS011;42299;35.160;26.100;2024-03-02T00:43:47;89.43;;;14.10;;
56401;SDS011;42299;35.160;26.100;2024-03-02T00:49:18;85.57;;;16.95;;
56401;SDS011;42299;35.160;26.100;2024-03-02T00:54:43;132.48;;;45.78;;
56401;SDS011;42299;35.160;26.100;2024-03-02T01:00:08;105.60;;;20.85;;
56401;SDS011;42299;35.160;26.100;2024-03-02T01:05:35;113.72;;;30.65;;
56401;SDS011;42299;35.160;26.100;2024-03-02T01:10:58;89.60;;;18.45;;
56401;SDS011;42299;35.160;26.100;2024-03-02T01:16:22;81.97;;;14.15;;
56401;SDS011;42299;35.160;26.100;2024-03-02T01:21:45;88.82;;;15.32;;
56401;SDS011;42299;35.160;26.100;2024-03-02T01:27:07;94.70;;;17.70;;
56401;SDS011;42299;35.160;26.100;2024-03-02T01:32:31;90.60;;;18.63;;
56401;SDS011;42299;35.160;26.100;2024-03-02T01:37:54;106.47;;;32.50;;
56401;SDS011;42299;35.160;26.100;2024-03-02T01:43:16;133.07;;;71.25;;
56401;SDS011;42299;35.160;26.100;2024-03-02T01:48:40;129.65;;;63.53;;
56401;SDS011;42299;35.160;26.100;2024-03-02T01:54:03;123.43;;;62.40;;
56401;SDS011;42299;35.160;26.100;2024-03-02T01:59:25;102.80;;;26.77;;
56401;SDS011;42299;35.160;26.100;2024-03-02T02:04:51;120.53;;;43.67;;
56401;SDS011;42299;35.160;26.100;2024-03-02T02:10:14;77.72;;;22.52;;
56401;SDS011;42299;35.160;26.100;2024-03-02T02:15:36;82.97;;;16.83;;
56401;SDS011;42299;35.160;26.100;2024-03-02T02:21:00;82.15;;;14.98;;
56401;SDS011;42299;35.160;26.100;2024-03-02T02:26:24;79.03;;;12.82;;
56401;SDS011;42299;35.160;26.100;2024-03-02T02:31:50;69.18;;;11.18;;
56401;SDS011;42299;35.160;26.100;2024-03-02T02:37:12;70.40;;;13.10;;
56401;SDS011;42299;35.160;26.100;2024-03-02T02:42:37;77.63;;;11.32;;
56401;SDS011;42299;35.160;26.100;2024-03-02T02:47:59;77.80;;;12.75;;
56401;SDS011;42299;35.160;26.100;2024-03-02T02:53:23;71.93;;;12.15;;
56401;SDS011;42299;35.160;26.100;2024-03-02T02:58:47;76.72;;;12.35;;
56401;SDS011;42299;35.160;26.100;2024-03-02T03:04:09;73.78;;;10.70;;
56401;SDS011;42299;35.160;26.100;2024-03-02T03:09:32;70.70;;;12.52;;
56401;SDS011;42299;35.160;26.100;2024-03-02T03:14:56;70.68;;;11.63;;
56401;SDS011;42299;35.160;26.100;2024-03-02T03:20:18;67.65;;;10.95;;
56401;SDS011;42299;35.160;26.100;2024-03-02T03:25:41;81.07;;;34.65;;
56401;SDS011;42299;35.160;26.100;2024-03-02T03:31:06;55.58;;;10.40;;
56401;SDS011;42299;35.160;26.100;2024-03-02T03:36:28;77.53;;;11.55;;
56401;SDS011;42299;35.160;26.100;2024-03-02T03:41:51;68.15;;;11.35;;
56401;SDS011;42299;35.160;26.100;2024-03-02T03:47:15;52.10;;;8.93;;
56401;SDS011;42299;35.160;26.100;2024-03-02T03:52:37;89.65;;;42.75;;
56401;SDS011;42299;35.160;26.100;2024-03-02T03:58:00;57.22;;;9.82;;
56401;SDS011;42299;35.160;26.100;2024-03-02T04:03:24;55.78;;;10.35;;
56401;SDS011;42299;35.160;26.100;2024-03-02T04:08:46;52.35;;;10.65;;
56401;SDS011;42299;35.160;26.100;2024-03-02T04:14:08;58.97;;;8.63;;
56401;SDS011;42299;35.160;26.100;2024-03-02T04:19:32;50.72;;;9.13;;
56401;SDS011;42299;35.160;26.100;2024-03-02T04:24:55;64.22;;;9.73;;
56401;SDS011;42299;35.160;26.100;2024-03-02T04:30:18;58.30;;;10.55;;
56401;SDS011;42299;35.160;26.100;2024-03-02T04:35:42;54.35;;;9.30;;
56401;SDS011;42299;35.160;26.100;2024-03-02T04:41:04;45.92;;;9.55;;
56401;SDS011;42299;35.160;26.100;2024-03-02T04:46:27;49.70;;;8.40;;
56401;SDS011;42299;35.160;26.100;2024-03-02T04:51:51;39.92;;;7.05;;
56401;SDS011;42299;35.160;26.100;2024-03-02T04:57:14;51.50;;;8.52;;
56401;SDS011;42299;35.160;26.100;2024-03-02T05:02:36;41.15;;;8.70;;
56401;SDS011;42299;35.160;26.100;2024-03-02T05:08:00;44.95;;;7.97;;
56401;SDS011;42299;35.160;26.100;2024-03-02T05:13:23;54.22;;;17.60;;
56401;SDS011;42299;35.160;26.100;2024-03-02T05:18:45;41.33;;;6.75;;
56401;SDS011;42299;35.160;26.100;2024-03-02T05:24:10;42.45;;;6.72;;
56401;SDS011;42299;35.160;26.100;2024-03-02T05:29:32;44.30;;;7.43;;
56401;SDS011;42299;35.160;26.100;2024-03-02T05:34:54;44.38;;;7.35;;
56401;SDS011;42299;35.160;26.100;2024-03-02T05:40:18;43.47;;;7.82;;
56401;SDS011;42299;35.160;26.100;2024-03-02T05:45:41;34.67;;;5.65;;
56401;SDS011;42299;35.160;26.100;2024-03-02T05:51:03;47.15;;;7.75;;
56401;SDS011;42299;35.160;26.100;2024-03-02T05:56:28;43.20;;;6.93;;
56401;SDS011;42299;35.160;26.100;2024-03-02T06:01:50;44.03;;;6.43;;
56401;SDS011;42299;35.160;26.100;2024-03-02T06:07:12;47.15;;;8.70;;
56401;SDS011;42299;35.160;26.100;2024-03-02T06:12:37;41.13;;;7.80;;
56401;SDS011;42299;35.160;26.100;2024-03-02T06:17:59;36.17;;;5.57;;
56401;SDS011;42299;35.160;26.100;2024-03-02T06:23:21;40.88;;;7.25;;
56401;SDS011;42299;35.160;26.100;2024-03-02T06:28:46;57.17;;;6.97;;
56401;SDS011;42299;35.160;26.100;2024-03-02T06:34:08;53.85;;;7.40;;
56401;SDS011;42299;35.160;26.100;2024-03-02T06:39:31;49.83;;;7.10;;
56401;SDS011;42299;35.160;26.100;2024-03-02T06:44:56;39.85;;;7.38;;
56401;SDS011;42299;35.160;26.100;2024-03-02T06:50:18;50.95;;;7.72;;
56401;SDS011;42299;35.160;26.100;2024-03-02T06:55:41;54.28;;;8.35;;
56401;SDS011;42299;35.160;26.100;2024-03-02T07:01:06;54.33;;;7.18;;
56401;SDS011;42299;35.160;26.100;2024-03-02T07:06:28;65.50;;;9.15;;
56401;SDS011;42299;35.160;26.100;2024-03-02T07:11:51;62.65;;;8.52;;
56401;SDS011;42299;35.160;26.100;2024-03-02T07:17:15;33.88;;;6.32;;
56401;SDS011;42299;35.160;26.100;2024-03-02T07:22:37;58.60;;;9.35;;
56401;SDS011;42299;35.160;26.100;2024-03-02T07:28:00;57.72;;;7.82;;
56401;SDS011;42299;35.160;26.100;2024-03-02T07:33:25;65.80;;;9.32;;
56401;SDS011;42299;35.160;26.100;2024-03-02T07:38:47;51.97;;;9.10;;
56401;SDS011;42299;35.160;26.100;2024-03-02T07:44:11;57.22;;;9.10;;
56401;SDS011;42299;35.160;26.100;2024-03-02T07:49:36;59.47;;;10.13;;
56401;SDS011;42299;35.160;26.100;2024-03-02T07:54:59;60.95;;;12.95;;
56401;SDS011;42299;35.160;26.100;2024-03-02T08:00:21;59.47;;;10.48;;
56401;SDS011;42299;35.160;26.100;2024-03-02T08:05:47;71.32;;;12.05;;
56401;SDS011;42299;35.160;26.100;2024-03-02T08:11:10;57.13;;;12.73;;
56401;SDS011;42299;35.160;26.100;2024-03-02T08:16:32;76.25;;;17.58;;
56401;SDS011;42299;35.160;26.100;2024-03-02T08:21:56;57.83;;;11.05;;
56401;SDS011;42299;35.160;26.100;2024-03-02T08:27:20;58.88;;;9.15;;
56401;SDS011;42299;35.160;26.100;2024-03-02T08:32:43;60.72;;;10.85;;
56401;SDS011;42299;35.160;26.100;2024-03-02T08:38:09;53.47;;;15.07;;
56401;SDS011;42299;35.160;26.100;2024-03-02T08:43:32;45.78;;;7.45;;
56401;SDS011;42299;35.160;26.100;2024-03-02T08:48:54;48.63;;;9.68;;
56401;SDS011;42299;35.160;26.100;2024-03-02T08:54:19;51.38;;;8.70;;
56401;SDS011;42299;35.160;26.100;2024-03-02T08:59:41;55.15;;;8.40;;
56401;SDS011;42299;35.160;26.100;2024-03-02T09:05:04;57.05;;;11.05;;
56401;SDS011;42299;35.160;26.100;2024-03-02T09:10:30;55.50;;;10.63;;
56401;SDS011;42299;35.160;26.100;2024-03-02T09:15:53;67.15;;;10.32;;
56401;SDS011;42299;35.160;26.100;2024-03-02T09:21:15;47.97;;;9.25;;
56401;SDS011;42299;35.160;26.100;2024-03-02T09:26:39;61.45;;;9.52;;
56401;SDS011;42299;35.160;26.100;2024-03-02T09:32:02;54.28;;;11.00;;
56401;SDS011;42299;35.160;26.100;2024-03-02T09:37:25;59.45;;;9.05;;
56401;SDS011;42299;35.160;26.100;2024-03-02T09:42:50;52.35;;;7.80;;
56401;SDS011;42299;35.160;26.100;2024-03-02T09:48:13;52.58;;;8.38;;
56401;SDS011;42299;35.160;26.100;2024-03-02T09:53:38;61.72;;;9.38;;
56401;SDS011;42299;35.160;26.100;2024-03-02T09:59:04;82.03;;;26.80;;
56401;SDS011;42299;35.160;26.100;2024-03-02T10:04:26;61.72;;;10.88;;
56401;SDS011;42299;35.160;26.100;2024-03-02T10:09:50;48.78;;;8.77;;
56401;SDS011;42299;35.160;26.100;2024-03-02T10:15:15;51.28;;;8.88;;
56401;SDS011;42299;35.160;26.100;2024-03-02T10:20:45;58.40;;;8.18;;
56401;SDS011;42299;35.160;26.100;2024-03-02T10:26:10;46.78;;;6.50;;
56401;SDS011;42299;35.160;26.100;2024-03-02T10:31:41;63.17;;;7.90;;
56401;SDS011;42299;35.160;26.100;2024-03-02T10:37:05;39.75;;;6.90;;
56401;SDS011;42299;35.160;26.100;2024-03-02T10:42:28;48.22;;;7.82;;
56401;SDS011;42299;35.160;26.100;2024-03-02T10:47:52;48.38;;;9.38;;
56401;SDS011;42299;35.160;26.100;2024-03-02T10:53:15;43.42;;;7.78;;
56401;SDS011;42299;35.160;26.100;2024-03-02T10:58:37;31.98;;;5.35;;
56401;SDS011;42299;35.160;26.100;2024-03-02T11:04:02;53.20;;;8.23;;
56401;SDS011;42299;35.160;26.100;2024-03-02T11:09:30;30.67;;;5.28;;
56401;SDS011;42299;35.160;26.100;2024-03-02T11:14:56;41.40;;;7.07;;
56401;SDS011;42299;35.160;26.100;2024-03-02T11:20:21;35.90;;;7.28;;
56401;SDS011;42299;35.160;26.100;2024-03-02T11:25:45;35.90;;;6.63;;
56401;SDS011;42299;35.160;26.100;2024-03-02T11:31:08;36.97;;;6.72;;
56401;SDS011;42299;35.160;26.100;2024-03-02T11:36:32;41.08;;;8.98;;
56401;SDS011;42299;35.160;26.100;2024-03-02T11:41:55;35.90;;;6.63;;
56401;SDS011;42299;35.160;26.100;2024-03-02T11:47:18;29.08;;;5.15;;
56401;SDS011;42299;35.160;26.100;2024-03-02T11:52:42;27.52;;;4.63;;
56401;SDS011;42299;35.160;26.100;2024-03-02T11:58:09;30.35;;;5.88;;
56401;SDS011;42299;35.160;26.100;2024-03-02T12:03:32;31.92;;;4.72;;
56401;SDS011;42299;35.160;26.100;2024-03-02T12:08:58;34.00;;;5.75;;
56401;SDS011;42299;35.160;26.100;2024-03-02T12:14:22;41.58;;;7.13;;
56401;SDS011;42299;35.160;26.100;2024-03-02T12:19:44;40.83;;;6.47;;
56401;SDS011;42299;35.160;26.100;2024-03-02T12:25:09;68.03;;;11.40;;
56401;SDS011;42299;35.160;26.100;2024-03-02T12:30:32;45.55;;;8.13;;
56401;SDS011;42299;35.160;26.100;2024-03-02T12:35:57;45.72;;;7.30;;
56401;SDS011;42299;35.160;26.100;2024-03-02T12:41:22;57.08;;;10.02;;
56401;SDS011;42299;35.160;26.100;2024-03-02T12:46:45;123.63;;;27.10;;
56401;SDS011;42299;35.160;26.100;2024-03-02T12:52:08;50.92;;;9.40;;
56401;SDS011;42299;35.160;26.100;2024-03-02T12:57:32;54.05;;;12.63;;
56401;SDS011;42299;35.160;26.100;2024-03-02T13:02:56;43.22;;;10.05;;
56401;SDS011;42299;35.160;26.100;2024-03-02T13:08:22;47.03;;;10.23;;
56401;SDS011;42299;35.160;26.100;2024-03-02T13:13:46;33.65;;;5.88;;
56401;SDS011;42299;35.160;26.100;2024-03-02T13:19:09;163.57;;;69.15;;
56401;SDS011;42299;35.160;26.100;2024-03-02T13:24:32;32.55;;;9.48;;
56401;SDS011;42299;35.160;26.100;2024-03-02T13:29:56;36.90;;;13.07;;
56401;SDS011;42299;35.160;26.100;2024-03-02T13:35:19;43.35;;;18.35;;
56401;SDS011;42299;35.160;26.100;2024-03-02T13:40:42;24.90;;;10.10;;
56401;SDS011;42299;35.160;26.100;2024-03-02T13:46:06;14.80;;;2.72;;
56401;SDS011;42299;35.160;26.100;2024-03-02T13:51:30;21.98;;;3.75;;
56401;SDS011;42299;35.160;26.100;2024-03-02T13:56:53;19.33;;;7.00;;
56401;SDS011;42299;35.160;26.100;2024-03-02T14:02:17;24.50;;;4.68;;
56401;SDS011;42299;35.160;26.100;2024-03-02T14:07:40;21.20;;;5.45;;
56401;SDS011;42299;35.160;26.100;2024-03-02T14:13:03;18.08;;;5.10;;
56401;SDS011;42299;35.160;26.100;2024-03-02T14:18:27;16.70;;;4.15;;
56401;SDS011;42299;35.160;26.100;2024-03-02T14:23:50;14.27;;;2.90;;
56401;SDS011;42299;35.160;26.100;2024-03-02T14:29:12;25.88;;;7.53;;
56401;SDS011;42299;35.160;26.100;2024-03-02T14:34:36;40.00;;;21.17;;
56401;SDS011;42299;35.160;26.100;2024-03-02T14:39:58;13.88;;;3.45;;
56401;SDS011;42299;35.160;26.100;2024-03-02T14:45:21;24.05;;;3.80;;
56401;SDS011;42299;35.160;26.100;2024-03-02T14:50:46;19.13;;;3.53;;
56401;SDS011;42299;35.160;26.100;2024-03-02T14:56:08;75.57;;;15.40;;
56401;SDS011;42299;35.160;26.100;2024-03-02T15:01:30;25.67;;;7.47;;
56401;SDS011;42299;35.160;26.100;2024-03-02T15:06:55;20.00;;;4.57;;
56401;SDS011;42299;35.160;26.100;2024-03-02T15:12:17;31.27;;;6.93;;
56401;SDS011;42299;35.160;26.100;2024-03-02T15:17:40;25.40;;;4.50;;
56401;SDS011;42299;35.160;26.100;2024-03-02T15:23:05;27.90;;;9.43;;
56401;SDS011;42299;35.160;26.100;2024-03-02T15:28:28;28.52;;;6.82;;
56401;SDS011;42299;35.160;26.100;2024-03-02T15:33:50;25.40;;;4.82;;
56401;SDS011;42299;35.160;26.100;2024-03-02T15:39:15;27.60;;;9.18;;
56401;SDS011;42299;35.160;26.100;2024-03-02T15:44:38;31.50;;;7.63;;
56401;SDS011;42299;35.160;26.100;2024-03-02T15:50:01;24.05;;;8.35;;
56401;SDS011;42299;35.160;26.100;2024-03-02T15:55:26;19.15;;;4.15;;
56401;SDS011;42299;35.160;26.100;2024-03-02T16:00:48;25.98;;;5.53;;
56401;SDS011;42299;35.160;26.100;2024-03-02T16:06:11;18.65;;;4.63;;
56401;SDS011;42299;35.160;26.100;2024-03-02T16:11:35;19.83;;;5.43;;
56401;SDS011;42299;35.160;26.100;2024-03-02T16:16:57;42.50;;;20.48;;
56401;SDS011;42299;35.160;26.100;2024-03-02T16:22:20;20.08;;;5.00;;
56401;SDS011;42299;35.160;26.100;2024-03-02T16:27:44;21.88;;;4.15;;
56401;SDS011;42299;35.160;26.100;2024-03-02T16:33:08;19.48;;;4.70;;
56401;SDS011;42299;35.160;26.100;2024-03-02T16:38:31;45.85;;;21.08;;
56401;SDS011;42299;35.160;26.100;2024-03-02T16:43:55;58.70;;;42.67;;
56401;SDS011;42299;35.160;26.100;2024-03-02T16:49:18;50.00;;;38.17;;
56401;SDS011;42299;35.160;26.100;2024-03-02T16:54:40;23.95;;;5.82;;
56401;SDS011;42299;35.160;26.100;2024-03-02T17:00:05;44.63;;;19.23;;
56401;SDS011;42299;35.160;26.100;2024-03-02T17:05:29;35.65;;;14.82;;
56401;SDS011;42299;35.160;26.100;2024-03-02T17:10:52;27.67;;;8.27;;
56401;SDS011;42299;35.160;26.100;2024-03-02T17:16:16;30.27;;;6.03;;
56401;SDS011;42299;35.160;26.100;2024-03-02T17:21:40;36.67;;;19.02;;
56401;SDS011;42299;35.160;26.100;2024-03-02T17:27:03;38.42;;;13.00;;
56401;SDS011;42299;35.160;26.100;2024-03-02T17:32:28;31.42;;;12.50;;
56401;SDS011;42299;35.160;26.100;2024-03-02T17:37:51;29.08;;;8.15;;
56401;SDS011;42299;35.160;26.100;2024-03-02T17:43:13;43.70;;;18.65;;
56401;SDS011;42299;35.160;26.100;2024-03-02T17:48:37;24.60;;;5.55;;
56401;SDS011;42299;35.160;26.100;2024-03-02T17:54:00;33.47;;;8.38;;
56401;SDS011;42299;35.160;26.100;2024-03-02T17:59:23;52.13;;;16.10;;
56401;SDS011;42299;35.160;26.100;2024-03-02T18:04:47;59.00;;;26.25;;
56401;SDS011;42299;35.160;26.100;2024-03-02T18:10:09;58.13;;;34.70;;
56401;SDS011;42299;35.160;26.100;2024-03-02T18:15:32;50.50;;;15.32;;
56401;SDS011;42299;35.160;26.100;2024-03-02T18:20:56;45.25;;;19.10;;
56401;SDS011;42299;35.160;26.100;2024-03-02T18:26:19;41.33;;;7.18;;
56401;SDS011;42299;35.160;26.100;2024-03-02T18:31:41;26.92;;;6.45;;
56401;SDS011;42299;35.160;26.100;2024-03-02T18:37:05;60.42;;;21.48;;
56401;SDS011;42299;35.160;26.100;2024-03-02T18:42:28;59.92;;;22.52;;
56401;SDS011;42299;35.160;26.100;2024-03-02T18:47:51;37.17;;;7.28;;
56401;SDS011;42299;35.160;26.100;2024-03-02T18:53:15;41.92;;;10.82;;
56401;SDS011;42299;35.160;26.100;2024-03-02T18:58:38;57.67;;;20.48;;
56401;SDS011;42299;35.160;26.100;2024-03-02T19:04:00;52.30;;;18.95;;
56401;SDS011;42299;35.160;26.100;2024-03-02T19:09:24;85.38;;;34.53;;
56401;SDS011;42299;35.160;26.100;2024-03-02T19:14:47;109.90;;;74.22;;
56401;SDS011;42299;35.160;26.100;2024-03-02T19:20:10;51.15;;;16.17;;
56401;SDS011;42299;35.160;26.100;2024-03-02T19:25:34;45.10;;;13.48;;
56401;SDS011;42299;35.160;26.100;2024-03-02T19:30:57;65.30;;;26.48;;
56401;SDS011;42299;35.160;26.100;2024-03-02T19:36:20;59.25;;;15.57;;
56401;SDS011;42299;35.160;26.100;2024-03-02T19:41:43;46.75;;;10.98;;
56401;SDS011;42299;35.160;26.100;2024-03-02T19:47:06;55.58;;;14.50;;
56401;SDS011;42299;35.160;26.100;2024-03-02T19:52:29;55.15;;;7.88;;
56401;SDS011;42299;35.160;26.100;2024-03-02T19:57:53;47.33;;;7.35;;
56401;SDS011;42299;35.160;26.100;2024-03-02T20:03:15;45.30;;;9.82;;
56401;SDS011;42299;35.160;26.100;2024-03-02T20:08:38;45.92;;;9.93;;
56401;SDS011;42299;35.160;26.100;2024-03-02T20:14:02;34.55;;;8.10;;
56401;SDS011;42299;35.160;26.100;2024-03-02T20:19:24;72.65;;;28.15;;
56401;SDS011;42299;35.160;26.100;2024-03-02T20:24:47;57.90;;;12.73;;
56401;SDS011;42299;35.160;26.100;2024-03-02T20:30:13;35.03;;;10.55;;
56401;SDS011;42299;35.160;26.100;2024-03-02T20:35:36;45.13;;;15.00;;
56401;SDS011;42299;35.160;26.100;2024-03-02T20:40:59;51.17;;;11.57;;
56401;SDS011;42299;35.160;26.100;2024-03-02T20:46:23;43.47;;;6.35;;
56401;SDS011;42299;35.160;26.100;2024-03-02T20:51:46;37.30;;;5.65;;
56401;SDS011;42299;35.160;26.100;2024-03-02T20:57:08;62.30;;;28.67;;
56401;SDS011;42299;35.160;26.100;2024-03-02T21:02:32;31.27;;;10.38;;
56401;SDS011;42299;35.160;26.100;2024-03-02T21:07:55;43.70;;;23.02;;
56401;SDS011;42299;35.160;26.100;2024-03-02T21:13:18;32.65;;;9.15;;
56401;SDS011;42299;35.160;26.100;2024-03-02T21:18:42;37.42;;;12.90;;
56401;SDS011;42299;35.160;26.100;2024-03-02T21:24:04;42.80;;;15.20;;
56401;SDS011;42299;35.160;26.100;2024-03-02T21:29:27;28.85;;;15.05;;
56401;SDS011;42299;35.160;26.100;2024-03-02T21:34:51;27.67;;;10.57;;
56401;SDS011;42299;35.160;26.100;2024-03-02T21:40:14;43.50;;;25.20;;
56401;SDS011;42299;35.160;26.100;2024-03-02T21:45:36;36.25;;;17.85;;
56401;SDS011;42299;35.160;26.100;2024-03-02T21:51:00;24.83;;;10.45;;
56401;SDS011;42299;35.160;26.100;2024-03-02T21:56:23;34.15;;;14.75;;
56401;SDS011;42299;35.160;26.100;2024-03-02T22:01:46;31.67;;;16.58;;
56401;SDS011;42299;35.160;26.100;2024-03-02T22:07:10;24.35;;;7.53;;
56401;SDS011;42299;35.160;26.100;2024-03-02T22:12:33;48.80;;;29.40;;
56401;SDS011;42299;35.160;26.100;2024-03-02T22:17:55;41.88;;;34.35;;
56401;SDS011;42299;35.160;26.100;2024-03-02T22:23:22;24.00;;;15.95;;
56401;SDS011;42299;35.160;26.100;2024-03-02T22:28:44;30.52;;;22.45;;
56401;SDS011;42299;35.160;26.100;2024-03-02T22:34:07;26.50;;;13.40;;
56401;SDS011;42299;35.160;26.100;2024-03-02T22:39:31;33.65;;;14.98;;
56401;SDS011;42299;35.160;26.100;2024-03-02T22:44:53;36.13;;;16.65;;
56401;SDS011;42299;35.160;26.100;2024-03-02T22:50:16;28.52;;;11.25;;
56401;SDS011;42299;35.160;26.100;2024-03-02T22:55:40;23.42;;;9.20;;
56401;SDS011;42299;35.160;26.100;2024-03-02T23:01:03;25.92;;;9.00;;
56401;SDS011;42299;35.160;26.100;2024-03-02T23:06:29;16.27;;;8.88;;
56401;SDS011;42299;35.160;26.100;2024-03-02T23:11:53;19.75;;;7.85;;
56401;SDS011;42299;35.160;26.100;2024-03-02T23:17:15;15.40;;;6.47;;
56401;SDS011;42299;35.160;26.100;2024-03-02T23:22:38;24.55;;;10.55;;
56401;SDS011;42299;35.160;26.100;2024-03-02T23:28:04;18.63;;;8.65;;
56401;SDS011;42299;35.160;26.100;2024-03-02T23:33:27;19.38;;;11.40;;
56401;SDS011;42299;35.160;26.100;2024-03-02T23:38:50;26.17;;;16.75;;
56401;SDS011;42299;35.160;26.100;2024-03-02T23:44:15;25.50;;;17.27;;
56401;SDS011;42299;35.160;26.100;2024-03-02T23:49:38;18.15;;;7.93;;
56401;SDS011;42299;35.160;26.100;2024-03-02T23:55:01;14.35;;;5.53;;
